sensor_id;sensor_type;location;lat;lon;timestamp;pressure;altitude;pressure_sealevel;temperature;humidity
86359;BME280;77014;48.070;20.776;2024-03-08T00:00:16;100666.73;;;6.49;64.53
86359;BME280;77014;48.070;20.776;2024-03-08T00:00:50;100667.55;;;6.48;64.49
86359;BME280;77014;48.070;20.776;2024-03-08T00:01:23;100667.25;;;6.48;64.54
86359;BME280;77014;48.070;20.776;2024-03-08T00:01:55;100667.63;;;6.47;64.72
86359;BME280;77014;48.070;20.776;2024-03-08T00:02:27;100666.63;;;6.47;64.66
86359;BME280;77014;48.070;20.776;2024-03-08T00:03:00;100667.95;;;6.47;64.36
86359;BME280;77014;48.070;20.776;2024-03-08T00:03:34;100667.78;;;6.47;64.25
86359;BME280;77014;48.070;20.776;2024-03-08T00:04:06;100666.24;;;6.47;64.25
86359;BME280;77014;48.070;20.776;2024-03-08T00:04:38;100666.72;;;6.47;64.07
86359;BME280;77014;48.070;20.776;2024-03-08T00:05:11;100666.93;;;6.47;63.57
86359;BME280;77014;48.070;20.776;2024-03-08T00:05:43;100666.98;;;6.47;63.42
86359;BME280;77014;48.070;20.776;2024-03-08T00:06:15;100665.99;;;6.47;63.98
86359;BME280;77014;48.070;20.776;2024-03-08T00:06:48;100665.34;;;6.46;63.95
86359;BME280;77014;48.070;20.776;2024-03-08T00:07:20;100666.52;;;6.46;63.75
86359;BME280;77014;48.070;20.776;2024-03-08T00:07:52;100666.46;;;6.46;63.55
86359;BME280;77014;48.070;20.776;2024-03-08T00:08:24;100666.30;;;6.46;63.69
86359;BME280;77014;48.070;20.776;2024-03-08T00:08:56;100665.82;;;6.45;63.52
86359;BME280;77014;48.070;20.776;2024-03-08T00:09:28;100666.80;;;6.45;63.83
86359;BME280;77014;48.070;20.776;2024-03-08T00:10:08;100667.64;;;6.44;63.89
86359;BME280;77014;48.070;20.776;2024-03-08T00:10:43;100668.26;;;6.44;63.78
86359;BME280;77014;48.070;20.776;2024-03-08T00:11:15;100667.41;;;6.44;63.86
86359;BME280;77014;48.070;20.776;2024-03-08T00:11:47;100667.55;;;6.44;63.67
86359;BME280;77014;48.070;20.776;2024-03-08T00:12:22;100667.37;;;6.44;63.72
86359;BME280;77014;48.070;20.776;2024-03-08T00:12:54;100667.81;;;6.43;63.86
86359;BME280;77014;48.070;20.776;2024-03-08T00:13:26;100668.02;;;6.43;63.62
86359;BME280;77014;48.070;20.776;2024-03-08T00:13:58;100667.45;;;6.43;63.86
86359;BME280;77014;48.070;20.776;2024-03-08T00:14:30;100667.67;;;6.42;63.80
86359;BME280;77014;48.070;20.776;2024-03-08T00:15:02;100667.70;;;6.42;63.72
86359;BME280;77014;48.070;20.776;2024-03-08T00:15:35;100668.10;;;6.41;63.20
86359;BME280;77014;48.070;20.776;2024-03-08T00:16:07;100668.76;;;6.41;63.23
86359;BME280;77014;48.070;20.776;2024-03-08T00:16:41;100666.93;;;6.41;63.26
86359;BME280;77014;48.070;20.776;2024-03-08T00:17:15;100665.82;;;6.41;63.19
86359;BME280;77014;48.070;20.776;2024-03-08T00:17:47;100666.67;;;6.41;63.21
86359;BME280;77014;48.070;20.776;2024-03-08T00:18:19;100666.77;;;6.41;63.41
86359;BME280;77014;48.070;20.776;2024-03-08T00:18:51;100667.41;;;6.41;63.84
86359;BME280;77014;48.070;20.776;2024-03-08T00:19:23;100667.88;;;6.40;63.97
86359;BME280;77014;48.070;20.776;2024-03-08T00:19:55;100667.40;;;6.40;64.14
86359;BME280;77014;48.070;20.776;2024-03-08T00:20:27;100667.24;;;6.40;64.33
86359;BME280;77014;48.070;20.776;2024-03-08T00:20:59;100667.95;;;6.40;64.28
86359;BME280;77014;48.070;20.776;2024-03-08T00:21:32;100668.13;;;6.40;64.41
86359;BME280;77014;48.070;20.776;2024-03-08T00:22:04;100668.23;;;6.39;64.68
86359;BME280;77014;48.070;20.776;2024-03-08T00:22:37;100668.30;;;6.39;64.78
86359;BME280;77014;48.070;20.776;2024-03-08T00:23:09;100668.65;;;6.39;64.83
86359;BME280;77014;48.070;20.776;2024-03-08T00:23:42;100668.80;;;6.39;64.65
86359;BME280;77014;48.070;20.776;2024-03-08T00:24:14;100666.69;;;6.39;64.58
86359;BME280;77014;48.070;20.776;2024-03-08T00:24:46;100668.87;;;6.39;64.14
86359;BME280;77014;48.070;20.776;2024-03-08T00:25:18;100668.62;;;6.39;63.76
86359;BME280;77014;48.070;20.776;2024-03-08T00:25:50;100667.30;;;6.39;63.27
86359;BME280;77014;48.070;20.776;2024-03-08T00:26:22;100667.40;;;6.39;63.28
86359;BME280;77014;48.070;20.776;2024-03-08T00:26:55;100667.09;;;6.38;63.71
86359;BME280;77014;48.070;20.776;2024-03-08T00:27:27;100666.18;;;6.38;63.96
86359;BME280;77014;48.070;20.776;2024-03-08T00:27:59;100666.22;;;6.38;63.85
86359;BME280;77014;48.070;20.776;2024-03-08T00:28:31;100664.53;;;6.37;63.97
86359;BME280;77014;48.070;20.776;2024-03-08T00:29:03;100664.07;;;6.37;64.21
86359;BME280;77014;48.070;20.776;2024-03-08T00:29:35;100664.98;;;6.37;64.06
86359;BME280;77014;48.070;20.776;2024-03-08T00:30:10;100665.37;;;6.36;64.00
86359;BME280;77014;48.070;20.776;2024-03-08T00:30:45;100664.54;;;6.36;64.19
86359;BME280;77014;48.070;20.776;2024-03-08T00:31:18;100664.52;;;6.36;64.49
86359;BME280;77014;48.070;20.776;2024-03-08T00:31:50;100664.78;;;6.36;64.52
86359;BME280;77014;48.070;20.776;2024-03-08T00:32:22;100663.59;;;6.36;64.56
86359;BME280;77014;48.070;20.776;2024-03-08T00:32:56;100663.58;;;6.36;64.61
86359;BME280;77014;48.070;20.776;2024-03-08T00:33:28;100663.20;;;6.36;64.71
86359;BME280;77014;48.070;20.776;2024-03-08T00:34:00;100663.39;;;6.35;64.70
86359;BME280;77014;48.070;20.776;2024-03-08T00:34:35;100663.15;;;6.35;64.66
86359;BME280;77014;48.070;20.776;2024-03-08T00:35:08;100662.55;;;6.35;64.72
86359;BME280;77014;48.070;20.776;2024-03-08T00:35:40;100661.74;;;6.35;64.45
86359;BME280;77014;48.070;20.776;2024-03-08T00:36:12;100661.77;;;6.34;64.36
86359;BME280;77014;48.070;20.776;2024-03-08T00:36:44;100661.30;;;6.34;64.29
86359;BME280;77014;48.070;20.776;2024-03-08T00:37:16;100660.80;;;6.34;64.18
86359;BME280;77014;48.070;20.776;2024-03-08T00:37:48;100659.39;;;6.34;64.23
86359;BME280;77014;48.070;20.776;2024-03-08T00:38:20;100659.40;;;6.33;63.10
86359;BME280;77014;48.070;20.776;2024-03-08T00:38:52;100658.38;;;6.32;63.06
86359;BME280;77014;48.070;20.776;2024-03-08T00:39:24;100657.15;;;6.33;63.41
86359;BME280;77014;48.070;20.776;2024-03-08T00:39:57;100657.49;;;6.33;63.39
86359;BME280;77014;48.070;20.776;2024-03-08T00:40:29;100655.43;;;6.33;63.25
86359;BME280;77014;48.070;20.776;2024-03-08T00:41:01;100655.00;;;6.33;63.54
86359;BME280;77014;48.070;20.776;2024-03-08T00:41:33;100655.56;;;6.32;63.60
86359;BME280;77014;48.070;20.776;2024-03-08T00:42:05;100654.13;;;6.32;63.17
86359;BME280;77014;48.070;20.776;2024-03-08T00:42:37;100655.64;;;6.31;63.16
86359;BME280;77014;48.070;20.776;2024-03-08T00:43:11;100650.82;;;6.31;63.21
86359;BME280;77014;48.070;20.776;2024-03-08T00:43:44;100653.05;;;6.31;63.12
86359;BME280;77014;48.070;20.776;2024-03-08T00:44:16;100653.92;;;6.30;62.99
86359;BME280;77014;48.070;20.776;2024-03-08T00:44:48;100653.98;;;6.30;63.32
86359;BME280;77014;48.070;20.776;2024-03-08T00:45:22;100653.10;;;6.30;63.69
86359;BME280;77014;48.070;20.776;2024-03-08T00:45:55;100653.29;;;6.30;63.60
86359;BME280;77014;48.070;20.776;2024-03-08T00:46:27;100651.18;;;6.29;63.28
86359;BME280;77014;48.070;20.776;2024-03-08T00:47:00;100651.38;;;6.29;63.27
86359;BME280;77014;48.070;20.776;2024-03-08T00:47:32;100651.80;;;6.28;63.45
86359;BME280;77014;48.070;20.776;2024-03-08T00:48:04;100649.93;;;6.28;63.37
86359;BME280;77014;48.070;20.776;2024-03-08T00:48:37;100650.25;;;6.28;62.98
86359;BME280;77014;48.070;20.776;2024-03-08T00:49:09;100649.95;;;6.27;62.84
86359;BME280;77014;48.070;20.776;2024-03-08T00:49:42;100649.86;;;6.27;63.32
86359;BME280;77014;48.070;20.776;2024-03-08T00:50:14;100648.98;;;6.27;63.49
86359;BME280;77014;48.070;20.776;2024-03-08T00:50:46;100649.56;;;6.27;63.73
86359;BME280;77014;48.070;20.776;2024-03-08T00:51:18;100650.63;;;6.28;63.68
86359;BME280;77014;48.070;20.776;2024-03-08T00:51:50;100648.98;;;6.27;63.94
86359;BME280;77014;48.070;20.776;2024-03-08T00:52:22;100649.98;;;6.27;63.92
86359;BME280;77014;48.070;20.776;2024-03-08T00:52:55;100649.88;;;6.27;63.69
86359;BME280;77014;48.070;20.776;2024-03-08T00:53:28;100648.84;;;6.26;63.51
86359;BME280;77014;48.070;20.776;2024-03-08T00:54:00;100647.68;;;6.25;63.31
86359;BME280;77014;48.070;20.776;2024-03-08T00:54:32;100647.40;;;6.25;63.12
86359;BME280;77014;48.070;20.776;2024-03-08T00:55:04;100647.59;;;6.25;63.42
86359;BME280;77014;48.070;20.776;2024-03-08T00:55:36;100647.92;;;6.25;63.46
86359;BME280;77014;48.070;20.776;2024-03-08T00:56:09;100648.48;;;6.25;63.44
86359;BME280;77014;48.070;20.776;2024-03-08T00:56:44;100647.89;;;6.25;63.44
86359;BME280;77014;48.070;20.776;2024-03-08T00:57:17;100647.37;;;6.25;63.60
86359;BME280;77014;48.070;20.776;2024-03-08T00:57:49;100646.56;;;6.25;63.86
86359;BME280;77014;48.070;20.776;2024-03-08T00:58:22;100648.27;;;6.25;63.87
86359;BME280;77014;48.070;20.776;2024-03-08T00:58:55;100647.66;;;6.25;63.74
86359;BME280;77014;48.070;20.776;2024-03-08T00:59:27;100650.56;;;6.25;63.60
86359;BME280;77014;48.070;20.776;2024-03-08T00:59:59;100646.96;;;6.25;63.45
86359;BME280;77014;48.070;20.776;2024-03-08T01:00:31;100649.19;;;6.25;62.99
86359;BME280;77014;48.070;20.776;2024-03-08T01:01:04;100648.35;;;6.25;63.05
86359;BME280;77014;48.070;20.776;2024-03-08T01:01:36;100648.87;;;6.25;63.48
86359;BME280;77014;48.070;20.776;2024-03-08T01:02:08;100648.02;;;6.25;63.42
86359;BME280;77014;48.070;20.776;2024-03-08T01:02:43;100646.06;;;6.24;63.20
86359;BME280;77014;48.070;20.776;2024-03-08T01:03:15;100648.34;;;6.24;63.12
86359;BME280;77014;48.070;20.776;2024-03-08T01:03:47;100647.13;;;6.24;63.23
86359;BME280;77014;48.070;20.776;2024-03-08T01:04:20;100646.95;;;6.24;63.23
86359;BME280;77014;48.070;20.776;2024-03-08T01:04:53;100646.69;;;6.25;63.14
86359;BME280;77014;48.070;20.776;2024-03-08T01:05:25;100646.60;;;6.25;63.32
86359;BME280;77014;48.070;20.776;2024-03-08T01:05:57;100646.99;;;6.25;63.39
86359;BME280;77014;48.070;20.776;2024-03-08T01:06:31;100647.33;;;6.25;63.47
86359;BME280;77014;48.070;20.776;2024-03-08T01:07:03;100646.48;;;6.25;63.54
86359;BME280;77014;48.070;20.776;2024-03-08T01:07:35;100646.26;;;6.25;63.54
86359;BME280;77014;48.070;20.776;2024-03-08T01:08:07;100646.95;;;6.25;63.65
86359;BME280;77014;48.070;20.776;2024-03-08T01:08:40;100647.86;;;6.25;63.87
86359;BME280;77014;48.070;20.776;2024-03-08T01:09:14;100648.08;;;6.25;64.17
86359;BME280;77014;48.070;20.776;2024-03-08T01:09:46;100646.35;;;6.25;64.19
86359;BME280;77014;48.070;20.776;2024-03-08T01:10:18;100644.79;;;6.24;63.88
86359;BME280;77014;48.070;20.776;2024-03-08T01:10:50;100646.04;;;6.24;63.35
86359;BME280;77014;48.070;20.776;2024-03-08T01:11:22;100645.48;;;6.24;63.26
86359;BME280;77014;48.070;20.776;2024-03-08T01:11:55;100643.95;;;6.24;63.46
86359;BME280;77014;48.070;20.776;2024-03-08T01:12:27;100643.43;;;6.24;63.58
86359;BME280;77014;48.070;20.776;2024-03-08T01:12:59;100642.98;;;6.24;63.20
86359;BME280;77014;48.070;20.776;2024-03-08T01:13:31;100643.01;;;6.24;63.04
86359;BME280;77014;48.070;20.776;2024-03-08T01:14:03;100643.80;;;6.24;63.09
86359;BME280;77014;48.070;20.776;2024-03-08T01:14:35;100642.52;;;6.24;63.16
86359;BME280;77014;48.070;20.776;2024-03-08T01:15:09;100641.08;;;6.24;63.22
86359;BME280;77014;48.070;20.776;2024-03-08T01:15:42;100640.77;;;6.24;62.97
86359;BME280;77014;48.070;20.776;2024-03-08T01:16:14;100640.50;;;6.23;62.33
86359;BME280;77014;48.070;20.776;2024-03-08T01:16:47;100639.84;;;6.22;62.34
86359;BME280;77014;48.070;20.776;2024-03-08T01:17:19;100638.52;;;6.21;62.59
86359;BME280;77014;48.070;20.776;2024-03-08T01:17:51;100638.64;;;6.21;62.88
86359;BME280;77014;48.070;20.776;2024-03-08T01:18:23;100638.15;;;6.21;63.13
86359;BME280;77014;48.070;20.776;2024-03-08T01:18:55;100637.47;;;6.20;63.15
86359;BME280;77014;48.070;20.776;2024-03-08T01:19:27;100638.30;;;6.20;63.40
86359;BME280;77014;48.070;20.776;2024-03-08T01:19:59;100639.34;;;6.20;63.49
86359;BME280;77014;48.070;20.776;2024-03-08T01:20:31;100638.30;;;6.20;63.34
86359;BME280;77014;48.070;20.776;2024-03-08T01:21:04;100637.46;;;6.20;63.60
86359;BME280;77014;48.070;20.776;2024-03-08T01:21:36;100637.66;;;6.20;63.65
86359;BME280;77014;48.070;20.776;2024-03-08T01:22:08;100637.65;;;6.20;63.58
86359;BME280;77014;48.070;20.776;2024-03-08T01:22:40;100638.43;;;6.20;63.38
86359;BME280;77014;48.070;20.776;2024-03-08T01:23:12;100636.52;;;6.20;63.32
86359;BME280;77014;48.070;20.776;2024-03-08T01:23:45;100635.83;;;6.20;63.67
86359;BME280;77014;48.070;20.776;2024-03-08T01:24:17;100634.34;;;6.20;63.76
86359;BME280;77014;48.070;20.776;2024-03-08T01:24:49;100634.73;;;6.20;63.97
86359;BME280;77014;48.070;20.776;2024-03-08T01:25:21;100634.47;;;6.20;63.40
86359;BME280;77014;48.070;20.776;2024-03-08T01:25:54;100635.41;;;6.19;63.05
86359;BME280;77014;48.070;20.776;2024-03-08T01:26:28;100634.69;;;6.18;63.53
86359;BME280;77014;48.070;20.776;2024-03-08T01:27:00;100632.46;;;6.18;64.11
86359;BME280;77014;48.070;20.776;2024-03-08T01:27:33;100631.29;;;6.18;63.96
86359;BME280;77014;48.070;20.776;2024-03-08T01:28:07;100631.04;;;6.18;63.64
86359;BME280;77014;48.070;20.776;2024-03-08T01:28:39;100630.94;;;6.18;63.55
86359;BME280;77014;48.070;20.776;2024-03-08T01:29:11;100629.73;;;6.18;63.36
86359;BME280;77014;48.070;20.776;2024-03-08T01:29:43;100630.08;;;6.18;63.27
86359;BME280;77014;48.070;20.776;2024-03-08T01:30:15;100628.94;;;6.18;63.23
86359;BME280;77014;48.070;20.776;2024-03-08T01:30:49;100628.38;;;6.17;63.06
86359;BME280;77014;48.070;20.776;2024-03-08T01:31:22;100627.76;;;6.17;62.98
86359;BME280;77014;48.070;20.776;2024-03-08T01:31:54;100627.64;;;6.16;62.85
86359;BME280;77014;48.070;20.776;2024-03-08T01:32:25;100629.66;;;6.16;62.63
86359;BME280;77014;48.070;20.776;2024-03-08T01:32:58;100627.98;;;6.16;62.57
86359;BME280;77014;48.070;20.776;2024-03-08T01:33:30;100627.32;;;6.16;62.70
86359;BME280;77014;48.070;20.776;2024-03-08T01:34:03;100628.18;;;6.16;62.53
86359;BME280;77014;48.070;20.776;2024-03-08T01:34:35;100628.19;;;6.16;62.90
86359;BME280;77014;48.070;20.776;2024-03-08T01:35:07;100627.59;;;6.16;62.74
86359;BME280;77014;48.070;20.776;2024-03-08T01:35:41;100626.63;;;6.15;62.95
86359;BME280;77014;48.070;20.776;2024-03-08T01:36:13;100627.10;;;6.15;62.75
86359;BME280;77014;48.070;20.776;2024-03-08T01:36:47;100627.88;;;6.14;62.91
86359;BME280;77014;48.070;20.776;2024-03-08T01:37:19;100625.80;;;6.14;63.41
86359;BME280;77014;48.070;20.776;2024-03-08T01:37:51;100625.98;;;6.14;63.37
86359;BME280;77014;48.070;20.776;2024-03-08T01:38:23;100626.38;;;6.14;63.04
86359;BME280;77014;48.070;20.776;2024-03-08T01:38:55;100625.91;;;6.13;63.22
86359;BME280;77014;48.070;20.776;2024-03-08T01:39:27;100625.45;;;6.12;62.86
86359;BME280;77014;48.070;20.776;2024-03-08T01:39:59;100625.11;;;6.11;63.09
86359;BME280;77014;48.070;20.776;2024-03-08T01:40:31;100625.73;;;6.11;63.30
86359;BME280;77014;48.070;20.776;2024-03-08T01:41:03;100626.91;;;6.10;63.47
86359;BME280;77014;48.070;20.776;2024-03-08T01:41:35;100625.84;;;6.10;63.77
86359;BME280;77014;48.070;20.776;2024-03-08T01:42:08;100625.85;;;6.10;63.97
86359;BME280;77014;48.070;20.776;2024-03-08T01:42:40;100627.45;;;6.09;63.96
86359;BME280;77014;48.070;20.776;2024-03-08T01:43:22;100628.86;;;6.08;64.36
86359;BME280;77014;48.070;20.776;2024-03-08T01:43:56;100627.95;;;6.08;64.90
86359;BME280;77014;48.070;20.776;2024-03-08T01:44:28;100629.63;;;6.08;64.92
86359;BME280;77014;48.070;20.776;2024-03-08T01:45:02;100627.11;;;6.08;64.78
86359;BME280;77014;48.070;20.776;2024-03-08T01:45:34;100628.21;;;6.08;63.93
86359;BME280;77014;48.070;20.776;2024-03-08T01:46:09;100628.07;;;6.08;63.61
86359;BME280;77014;48.070;20.776;2024-03-08T01:46:41;100627.38;;;6.09;63.59
86359;BME280;77014;48.070;20.776;2024-03-08T01:47:14;100626.99;;;6.09;63.64
86359;BME280;77014;48.070;20.776;2024-03-08T01:47:46;100626.84;;;6.09;63.58
86359;BME280;77014;48.070;20.776;2024-03-08T01:48:20;100625.30;;;6.09;63.88
86359;BME280;77014;48.070;20.776;2024-03-08T01:48:56;100625.23;;;6.09;64.41
86359;BME280;77014;48.070;20.776;2024-03-08T01:49:29;100623.45;;;6.09;64.14
86359;BME280;77014;48.070;20.776;2024-03-08T01:50:02;100622.82;;;6.09;63.87
86359;BME280;77014;48.070;20.776;2024-03-08T01:50:35;100623.04;;;6.09;63.55
86359;BME280;77014;48.070;20.776;2024-03-08T01:51:08;100621.63;;;6.09;64.08
86359;BME280;77014;48.070;20.776;2024-03-08T01:51:41;100622.26;;;6.09;64.91
86359;BME280;77014;48.070;20.776;2024-03-08T01:52:14;100622.68;;;6.09;65.60
86359;BME280;77014;48.070;20.776;2024-03-08T01:52:46;100622.95;;;6.09;65.78
86359;BME280;77014;48.070;20.776;2024-03-08T01:53:19;100622.82;;;6.09;64.99
86359;BME280;77014;48.070;20.776;2024-03-08T01:53:51;100622.16;;;6.09;64.23
86359;BME280;77014;48.070;20.776;2024-03-08T01:54:23;100621.80;;;6.09;63.96
86359;BME280;77014;48.070;20.776;2024-03-08T01:54:58;100621.83;;;6.09;64.03
86359;BME280;77014;48.070;20.776;2024-03-08T01:55:32;100621.66;;;6.09;64.32
86359;BME280;77014;48.070;20.776;2024-03-08T01:56:07;100621.61;;;6.09;64.04
86359;BME280;77014;48.070;20.776;2024-03-08T01:56:40;100621.42;;;6.09;64.20
86359;BME280;77014;48.070;20.776;2024-03-08T01:57:12;100621.28;;;6.09;64.56
86359;BME280;77014;48.070;20.776;2024-03-08T01:57:45;100620.74;;;6.09;64.76
86359;BME280;77014;48.070;20.776;2024-03-08T01:58:18;100621.02;;;6.09;64.65
86359;BME280;77014;48.070;20.776;2024-03-08T01:58:54;100621.45;;;6.09;64.64
86359;BME280;77014;48.070;20.776;2024-03-08T01:59:27;100621.29;;;6.09;64.82
86359;BME280;77014;48.070;20.776;2024-03-08T02:00:00;100621.66;;;6.09;64.92
86359;BME280;77014;48.070;20.776;2024-03-08T02:00:36;100621.59;;;6.09;65.22
86359;BME280;77014;48.070;20.776;2024-03-08T02:01:08;100620.72;;;6.09;65.21
86359;BME280;77014;48.070;20.776;2024-03-08T02:01:42;100622.50;;;6.09;65.19
86359;BME280;77014;48.070;20.776;2024-03-08T02:02:18;100622.32;;;6.09;65.44
86359;BME280;77014;48.070;20.776;2024-03-08T02:02:54;100623.01;;;6.09;65.18
86359;BME280;77014;48.070;20.776;2024-03-08T02:03:26;100623.19;;;6.09;65.08
86359;BME280;77014;48.070;20.776;2024-03-08T02:03:58;100623.62;;;6.09;64.96
86359;BME280;77014;48.070;20.776;2024-03-08T02:04:30;100624.87;;;6.09;64.85
86359;BME280;77014;48.070;20.776;2024-03-08T02:05:05;100624.80;;;6.09;64.85
86359;BME280;77014;48.070;20.776;2024-03-08T02:05:40;100624.64;;;6.09;64.56
86359;BME280;77014;48.070;20.776;2024-03-08T02:06:13;100625.66;;;6.09;64.47
86359;BME280;77014;48.070;20.776;2024-03-08T02:06:48;100625.99;;;6.10;64.45
86359;BME280;77014;48.070;20.776;2024-03-08T02:07:20;100626.29;;;6.10;64.06
86359;BME280;77014;48.070;20.776;2024-03-08T02:07:54;100627.08;;;6.10;63.86
86359;BME280;77014;48.070;20.776;2024-03-08T02:08:26;100627.03;;;6.11;63.89
86359;BME280;77014;48.070;20.776;2024-03-08T02:08:59;100627.27;;;6.11;64.23
86359;BME280;77014;48.070;20.776;2024-03-08T02:09:32;100626.60;;;6.10;64.31
86359;BME280;77014;48.070;20.776;2024-03-08T02:10:04;100626.56;;;6.10;64.38
86359;BME280;77014;48.070;20.776;2024-03-08T02:10:37;100626.86;;;6.10;64.60
86359;BME280;77014;48.070;20.776;2024-03-08T02:11:09;100627.55;;;6.10;64.64
86359;BME280;77014;48.070;20.776;2024-03-08T02:11:42;100627.34;;;6.10;64.24
86359;BME280;77014;48.070;20.776;2024-03-08T02:12:14;100627.64;;;6.09;64.64
86359;BME280;77014;48.070;20.776;2024-03-08T02:12:47;100627.83;;;6.09;65.43
86359;BME280;77014;48.070;20.776;2024-03-08T02:13:19;100627.86;;;6.10;65.56
86359;BME280;77014;48.070;20.776;2024-03-08T02:13:51;100627.20;;;6.10;65.63
86359;BME280;77014;48.070;20.776;2024-03-08T02:14:23;100626.40;;;6.11;65.78
86359;BME280;77014;48.070;20.776;2024-03-08T02:14:55;100625.51;;;6.10;65.45
86359;BME280;77014;48.070;20.776;2024-03-08T02:16:22;100625.21;;;6.10;65.52
86359;BME280;77014;48.070;20.776;2024-03-08T02:16:54;100625.08;;;6.09;65.70
86359;BME280;77014;48.070;20.776;2024-03-08T02:17:29;100625.70;;;6.09;65.76
86359;BME280;77014;48.070;20.776;2024-03-08T02:18:02;100625.52;;;6.09;65.65
86359;BME280;77014;48.070;20.776;2024-03-08T02:18:35;100624.94;;;6.08;65.95
86359;BME280;77014;48.070;20.776;2024-03-08T02:19:07;100624.80;;;6.09;65.99
86359;BME280;77014;48.070;20.776;2024-03-08T02:19:41;100625.16;;;6.09;65.78
86359;BME280;77014;48.070;20.776;2024-03-08T02:20:13;100625.03;;;6.09;65.54
86359;BME280;77014;48.070;20.776;2024-03-08T02:20:52;100624.42;;;6.09;65.30
86359;BME280;77014;48.070;20.776;2024-03-08T02:21:24;100623.87;;;6.09;64.83
86359;BME280;77014;48.070;20.776;2024-03-08T02:21:57;100623.23;;;6.09;64.50
86359;BME280;77014;48.070;20.776;2024-03-08T02:22:30;100623.27;;;6.09;64.81
86359;BME280;77014;48.070;20.776;2024-03-08T02:23:04;100623.40;;;6.09;64.69
86359;BME280;77014;48.070;20.776;2024-03-08T02:23:36;100622.41;;;6.09;64.78
86359;BME280;77014;48.070;20.776;2024-03-08T02:24:09;100622.31;;;6.08;64.74
86359;BME280;77014;48.070;20.776;2024-03-08T02:24:42;100621.83;;;6.08;64.78
86359;BME280;77014;48.070;20.776;2024-03-08T02:25:14;100622.07;;;6.09;64.79
86359;BME280;77014;48.070;20.776;2024-03-08T02:25:48;100621.84;;;6.09;64.98
86359;BME280;77014;48.070;20.776;2024-03-08T02:26:20;100621.21;;;6.09;65.00
86359;BME280;77014;48.070;20.776;2024-03-08T02:26:52;100621.17;;;6.09;65.08
86359;BME280;77014;48.070;20.776;2024-03-08T02:27:25;100620.93;;;6.09;65.47
86359;BME280;77014;48.070;20.776;2024-03-08T02:27:57;100620.93;;;6.09;65.71
86359;BME280;77014;48.070;20.776;2024-03-08T02:28:29;100620.95;;;6.09;65.41
86359;BME280;77014;48.070;20.776;2024-03-08T02:29:02;100621.05;;;6.09;65.11
86359;BME280;77014;48.070;20.776;2024-03-08T02:29:35;100621.71;;;6.08;65.39
86359;BME280;77014;48.070;20.776;2024-03-08T02:30:09;100621.51;;;6.08;65.50
86359;BME280;77014;48.070;20.776;2024-03-08T02:30:41;100621.12;;;6.08;65.44
86359;BME280;77014;48.070;20.776;2024-03-08T02:31:13;100620.99;;;6.08;65.03
86359;BME280;77014;48.070;20.776;2024-03-08T02:31:45;100620.65;;;6.08;65.24
86359;BME280;77014;48.070;20.776;2024-03-08T02:32:17;100620.73;;;6.08;65.17
86359;BME280;77014;48.070;20.776;2024-03-08T02:32:49;100620.68;;;6.08;65.07
86359;BME280;77014;48.070;20.776;2024-03-08T02:33:23;100620.85;;;6.09;64.94
86359;BME280;77014;48.070;20.776;2024-03-08T02:33:55;100620.92;;;6.09;65.01
86359;BME280;77014;48.070;20.776;2024-03-08T02:34:27;100621.27;;;6.09;65.05
86359;BME280;77014;48.070;20.776;2024-03-08T02:34:59;100622.09;;;6.08;65.14
86359;BME280;77014;48.070;20.776;2024-03-08T02:35:32;100622.20;;;6.07;65.28
86359;BME280;77014;48.070;20.776;2024-03-08T02:36:05;100622.22;;;6.07;65.44
86359;BME280;77014;48.070;20.776;2024-03-08T02:36:38;100622.21;;;6.07;65.57
86359;BME280;77014;48.070;20.776;2024-03-08T02:37:10;100621.89;;;6.07;65.89
86359;BME280;77014;48.070;20.776;2024-03-08T02:37:42;100622.00;;;6.07;65.94
86359;BME280;77014;48.070;20.776;2024-03-08T02:38:15;100620.58;;;6.07;65.70
86359;BME280;77014;48.070;20.776;2024-03-08T02:38:48;100621.40;;;6.07;65.32
86359;BME280;77014;48.070;20.776;2024-03-08T02:39:20;100621.96;;;6.07;64.98
86359;BME280;77014;48.070;20.776;2024-03-08T02:39:52;100622.30;;;6.07;65.00
86359;BME280;77014;48.070;20.776;2024-03-08T02:40:24;100621.55;;;6.07;65.02
86359;BME280;77014;48.070;20.776;2024-03-08T02:40:56;100621.18;;;6.07;64.83
86359;BME280;77014;48.070;20.776;2024-03-08T02:41:28;100620.77;;;6.07;64.56
86359;BME280;77014;48.070;20.776;2024-03-08T02:42:00;100620.88;;;6.07;64.65
86359;BME280;77014;48.070;20.776;2024-03-08T02:42:32;100620.34;;;6.07;64.89
86359;BME280;77014;48.070;20.776;2024-03-08T02:43:04;100620.30;;;6.07;64.88
86359;BME280;77014;48.070;20.776;2024-03-08T02:43:36;100620.55;;;6.07;64.60
86359;BME280;77014;48.070;20.776;2024-03-08T02:44:08;100620.64;;;6.07;64.52
86359;BME280;77014;48.070;20.776;2024-03-08T02:44:43;100620.79;;;6.07;64.34
86359;BME280;77014;48.070;20.776;2024-03-08T02:45:18;100621.17;;;6.06;64.41
86359;BME280;77014;48.070;20.776;2024-03-08T02:45:51;100620.77;;;6.06;64.80
86359;BME280;77014;48.070;20.776;2024-03-08T02:46:24;100620.59;;;6.06;65.22
86359;BME280;77014;48.070;20.776;2024-03-08T02:46:56;100621.19;;;6.07;65.30
86359;BME280;77014;48.070;20.776;2024-03-08T02:47:28;100621.01;;;6.07;65.44
86359;BME280;77014;48.070;20.776;2024-03-08T02:48:03;100621.77;;;6.07;65.35
86359;BME280;77014;48.070;20.776;2024-03-08T02:48:35;100621.77;;;6.07;65.30
86359;BME280;77014;48.070;20.776;2024-03-08T02:49:07;100622.16;;;6.07;65.16
86359;BME280;77014;48.070;20.776;2024-03-08T02:49:39;100622.65;;;6.07;65.16
86359;BME280;77014;48.070;20.776;2024-03-08T02:50:11;100622.52;;;6.07;65.22
86359;BME280;77014;48.070;20.776;2024-03-08T02:50:48;100622.55;;;6.07;65.38
86359;BME280;77014;48.070;20.776;2024-03-08T02:51:22;100622.78;;;6.07;65.56
86359;BME280;77014;48.070;20.776;2024-03-08T02:51:54;100623.10;;;6.07;65.50